Emigrant, MT (59027)

5:23 AM MDT on August 30, 2014 (GMT -0600)
Double H Ranch | Change Station
CLOSE
Current Station
Personal Weather Station
Location: Livingston, MT
Elevation: 5007 ft
Nearby Weather Stations

Elev 5007 ft 45.40 °N, 110.69 °W | Updated 8 minutes ago

Overcast
Overcast
62.8 °F
Feels Like 62.8 °F
N
3.7
Wind Variable Wind from South

Today
High -- | Low -- °F
--% Chance of Precip.
Yesterday
High -- | Low -- °F
Precip. -- in
6:43 AM 8:04 PM
Waxing Crescent, 21% visible
Pressure 29.67 in
Visibility 10.0 miles
Clouds Mostly Cloudy 11000 ft
Dew Point 46 °F
Humidity 54%
Rainfall 0.00 in
Snow Depth 1 in
UV 0 out of 12
Pollen 6.80 out of 12
Air Quality Not available.
Flu Activity Not available.
METAR KLVM 301053Z AUTO 32007KT 10SM BKN110 19/06 A2983 RMK AO2 SLP046 T01940061

More Conditions Fewer Conditions

Pressure 29.67 in
Visibility 10.0 miles
Clouds Mostly Cloudy 11000 ft
Dew Point 46 °F
Humidity 54%
Rainfall 0.00 in
Snow Depth 1 in
UV 0 out of 12
Pollen 6.80 out of 12
Air Quality Not available.
Flu Activity Not available.
METAR KLVM 301053Z AUTO 32007KT 10SM BKN110 19/06 A2983 RMK AO2 SLP046 T01940061

More Conditions Fewer Conditions

10-Day Weather Forecast

Almanac

Astronomy

Aug. 30, 2014 Rise Set
Actual Time 6:43 AM MDT 8:04 PM MDT
Civil Twilight 6:12 AM MDT 8:35 PM MDT
Nautical Twilight 5:35 AM MDT 9:11 PM MDT
Astronomical Twilight 4:56 AM MDT 9:50 PM MDT
Moon 11:49 AM MDT 10:25 PM MDT
Length of Visible Light 14h 22m
Length of Day
13h 21m
Tomorrow will be 3m 1s shorter.
Waxing Crescent, 21% of the Moon is Illuminated
Today
Waxing Crescent
Sep 2
First Quarter
Sep 8
Full
Sep 15
Last Quarter
Sep 24
New

Today's Extremes

State Highs State Lows

Community

WunderPhotos

Upload Photos

1,748,492 photos uploaded!

WunderBlogs® & News

By Dr. Jeff Masters
Director of Meteorology, Weather Underground
By Kari Strenfel
Meteorologist, Weather Underground
By Christopher C. Burt
Weather Historian, Weather Underground
August 30, 2014
August 30, 2014
August 30, 2014

Nearby

Snow Depth

Station Depth Elevation
Shower Falls 1 in 8100 ft
Carrot Basin 0 in 9000 ft
Lone Mountain 0 in 8880 ft
Beaver Creek 0 in 7850 ft
Monument Peak 0 in 8850 ft

Earthquake Activity

City Distance Mag. Time & Date
No recent earthquake activity has been reported nearby.
Minimum magnitude displayed is 2.5.

Coastal Water Temperatures

Place Temperature
No Stations Reporting

Nearby Weather Stations